GLD166 SBMN-SWKO
Flight info
| Callsign | GLD166 |
|---|---|
| Flight time | N/A |
| Altitude | 4500 |
| Route | REA N0150F045 0318S06011W 0325S06040W 0345S06140W 0356S06252W |
| Aircraft | C182/M-SDFGIRY/S |
Departure
| Time | N/A |
|---|---|
| Airport | Ponta Pelada Airport / Manaus Air Base (SBMN) |
Arrival
| Time | 2026-05-04 20:24 |
|---|---|
| Airport | Danilson Municipal Airport (SWKO) |
| Time | Latitude | Longitude | Altitude | Speed | Heading |
|---|---|---|---|---|---|
| 2026-05-04 19:17 | -3.31879 | -60.33588 | 2608 ft | 147 kts | 249° |
| 2026-05-04 19:17 | -3.32246 | -60.34537 | 2757 ft | 146 kts | 249° |
| 2026-05-04 19:17 | -3.32611 | -60.35481 | 2819 ft | 145 kts | 249° |
| 2026-05-04 19:17 | -3.32991 | -60.36435 | 2970 ft | 149 kts | 249° |
| 2026-05-04 19:18 | -3.33385 | -60.37411 | 3116 ft | 152 kts | 248° |
| 2026-05-04 19:18 | -3.33781 | -60.38391 | 3257 ft | 152 kts | 249° |
| 2026-05-04 19:18 | -3.34177 | -60.39366 | 3409 ft | 150 kts | 249° |
| 2026-05-04 19:18 | -3.34578 | -60.40335 | 3543 ft | 151 kts | 249° |
| 2026-05-04 19:19 | -3.34987 | -60.41298 | 3692 ft | 150 kts | 249° |
| 2026-05-04 19:19 | -3.35390 | -60.42248 | 3836 ft | 150 kts | 249° |
| 2026-05-04 19:19 | -3.35795 | -60.43216 | 3979 ft | 151 kts | 249° |
| 2026-05-04 19:19 | -3.36208 | -60.44182 | 4125 ft | 151 kts | 248° |
| 2026-05-04 19:20 | -3.36621 | -60.45149 | 4273 ft | 151 kts | 249° |
| 2026-05-04 19:20 | -3.37034 | -60.46115 | 4415 ft | 151 kts | 249° |
| 2026-05-04 19:20 | -3.37447 | -60.47078 | 4560 ft | 150 kts | 249° |
| 2026-05-04 19:20 | -3.37869 | -60.48037 | 4711 ft | 150 kts | 248° |
| 2026-05-04 19:21 | -3.38285 | -60.48994 | 4850 ft | 150 kts | 249° |
| 2026-05-04 19:21 | -3.38703 | -60.49951 | 4993 ft | 149 kts | 249° |
| 2026-05-04 19:21 | -3.39119 | -60.50903 | 5137 ft | 149 kts | 248° |
| 2026-05-04 19:21 | -3.39533 | -60.51858 | 5275 ft | 149 kts | 249° |
| 2026-05-04 19:22 | -3.39941 | -60.52794 | 5420 ft | 148 kts | 248° |
| 2026-05-04 19:22 | -3.40346 | -60.53735 | 5563 ft | 146 kts | 249° |
| 2026-05-04 19:22 | -3.40752 | -60.54666 | 5704 ft | 145 kts | 249° |
| 2026-05-04 19:22 | -3.41157 | -60.55585 | 5847 ft | 143 kts | 248° |
| 2026-05-04 19:23 | -3.41556 | -60.56496 | 5998 ft | 143 kts | 249° |
| 2026-05-04 19:23 | -3.41954 | -60.57399 | 6133 ft | 141 kts | 248° |
| 2026-05-04 19:23 | -3.42349 | -60.58294 | 6282 ft | 139 kts | 248° |
| 2026-05-04 19:23 | -3.42736 | -60.59176 | 6416 ft | 138 kts | 248° |
| 2026-05-04 19:24 | -3.43126 | -60.60049 | 6551 ft | 136 kts | 248° |
| 2026-05-04 19:24 | -3.43504 | -60.60904 | 6683 ft | 135 kts | 249° |
| 2026-05-04 19:24 | -3.43883 | -60.61763 | 6821 ft | 135 kts | 248° |
| 2026-05-04 19:24 | -3.44265 | -60.62624 | 6956 ft | 135 kts | 248° |
| 2026-05-04 19:25 | -3.44648 | -60.63483 | 7096 ft | 134 kts | 248° |
| 2026-05-04 19:25 | -3.45028 | -60.64345 | 7101 ft | 143 kts | 249° |
| 2026-05-04 19:25 | -3.45456 | -60.65328 | 6861 ft | 163 kts | 249° |
| 2026-05-04 19:25 | -3.45925 | -60.66401 | 6626 ft | 173 kts | 248° |
| 2026-05-04 19:26 | -3.46414 | -60.67523 | 6383 ft | 178 kts | 248° |
| 2026-05-04 19:26 | -3.46913 | -60.68668 | 6128 ft | 181 kts | 248° |
| 2026-05-04 19:26 | -3.47415 | -60.69815 | 5866 ft | 183 kts | 249° |
| 2026-05-04 19:26 | -3.47932 | -60.70987 | 5603 ft | 184 kts | 248° |
| 2026-05-04 19:27 | -3.48455 | -60.72163 | 5345 ft | 186 kts | 248° |
| 2026-05-04 19:27 | -3.48984 | -60.73349 | 5111 ft | 186 kts | 248° |
| 2026-05-04 19:27 | -3.49508 | -60.74514 | 4986 ft | 182 kts | 248° |
| 2026-05-04 19:27 | -3.50024 | -60.75657 | 4868 ft | 180 kts | 248° |
| 2026-05-04 19:28 | -3.50505 | -60.76803 | 4745 ft | 178 kts | 251° |
| 2026-05-04 19:28 | -3.50793 | -60.77571 | 4665 ft | 178 kts | 252° |
| 2026-05-04 19:28 | -3.51231 | -60.78738 | 4486 ft | 180 kts | 252° |
| 2026-05-04 19:28 | -3.51662 | -60.79892 | 4490 ft | 175 kts | 252° |
| 2026-05-04 19:29 | -3.52093 | -60.81037 | 4491 ft | 176 kts | 252° |
| 2026-05-04 19:29 | -3.52525 | -60.82173 | 4489 ft | 174 kts | 252° |
| 2026-05-04 19:29 | -3.53094 | -60.83668 | 4482 ft | 173 kts | 252° |
| 2026-05-04 19:29 | -3.53385 | -60.84426 | 4482 ft | 172 kts | 251° |
| 2026-05-04 19:30 | -3.53810 | -60.85539 | 4479 ft | 170 kts | 252° |
| 2026-05-04 19:30 | -3.54234 | -60.86641 | 4477 ft | 169 kts | 251° |
| 2026-05-04 19:30 | -3.54650 | -60.87722 | 4475 ft | 167 kts | 252° |
| 2026-05-04 19:30 | -3.55072 | -60.88804 | 4474 ft | 166 kts | 251° |
| 2026-05-04 19:31 | -3.55488 | -60.89882 | 4468 ft | 166 kts | 252° |
| 2026-05-04 19:31 | -3.55910 | -60.90954 | 4471 ft | 165 kts | 251° |
| 2026-05-04 19:31 | -3.56328 | -60.92023 | 4468 ft | 165 kts | 251° |
| 2026-05-04 19:31 | -3.56744 | -60.93096 | 4469 ft | 165 kts | 251° |
| 2026-05-04 19:32 | -3.57162 | -60.94169 | 4471 ft | 166 kts | 251° |
| 2026-05-04 19:32 | -3.57582 | -60.95248 | 4471 ft | 167 kts | 251° |
| 2026-05-04 19:32 | -3.58003 | -60.96335 | 4475 ft | 168 kts | 251° |
| 2026-05-04 19:32 | -3.58427 | -60.97432 | 4473 ft | 169 kts | 251° |
| 2026-05-04 19:33 | -3.58846 | -60.98525 | 4472 ft | 167 kts | 251° |
| 2026-05-04 19:33 | -3.59267 | -60.99613 | 4468 ft | 167 kts | 252° |
| 2026-05-04 19:33 | -3.59686 | -61.00693 | 4470 ft | 166 kts | 251° |
| 2026-05-04 19:33 | -3.60103 | -61.01772 | 4468 ft | 166 kts | 251° |
| 2026-05-04 19:34 | -3.60525 | -61.02853 | 4468 ft | 167 kts | 251° |
| 2026-05-04 19:34 | -3.60945 | -61.03931 | 4467 ft | 166 kts | 251° |
| 2026-05-04 19:34 | -3.61357 | -61.04995 | 4468 ft | 166 kts | 251° |
| 2026-05-04 19:34 | -3.61778 | -61.06073 | 4467 ft | 166 kts | 251° |
| 2026-05-04 19:35 | -3.62201 | -61.07149 | 4468 ft | 166 kts | 251° |
| 2026-05-04 19:35 | -3.62624 | -61.08223 | 4467 ft | 166 kts | 251° |
| 2026-05-04 19:35 | -3.63048 | -61.09295 | 4465 ft | 165 kts | 251° |
| 2026-05-04 19:35 | -3.63476 | -61.10365 | 4468 ft | 166 kts | 251° |
| 2026-05-04 19:36 | -3.63906 | -61.11438 | 4464 ft | 166 kts | 251° |
| 2026-05-04 19:36 | -3.64333 | -61.12516 | 4465 ft | 167 kts | 251° |
| 2026-05-04 19:36 | -3.64764 | -61.13601 | 4470 ft | 168 kts | 251° |
| 2026-05-04 19:36 | -3.65199 | -61.14697 | 4473 ft | 171 kts | 251° |
| 2026-05-04 19:37 | -3.65641 | -61.15802 | 4474 ft | 172 kts | 251° |
| 2026-05-04 19:37 | -3.66079 | -61.16914 | 4473 ft | 171 kts | 251° |
| 2026-05-04 19:37 | -3.66514 | -61.18009 | 4472 ft | 172 kts | 251° |
| 2026-05-04 19:37 | -3.66951 | -61.19120 | 4470 ft | 171 kts | 251° |
| 2026-05-04 19:38 | -3.67387 | -61.20231 | 4478 ft | 171 kts | 251° |
| 2026-05-04 19:38 | -3.67822 | -61.21343 | 4475 ft | 171 kts | 251° |
| 2026-05-04 19:38 | -3.68260 | -61.22446 | 4471 ft | 170 kts | 251° |
| 2026-05-04 19:38 | -3.68696 | -61.23543 | 4470 ft | 168 kts | 251° |
| 2026-05-04 19:39 | -3.69131 | -61.24630 | 4465 ft | 168 kts | 251° |
| 2026-05-04 19:39 | -3.69569 | -61.25715 | 4469 ft | 168 kts | 251° |
| 2026-05-04 19:39 | -3.70006 | -61.26806 | 4464 ft | 168 kts | 251° |
| 2026-05-04 19:39 | -3.70440 | -61.27893 | 4464 ft | 168 kts | 251° |
| 2026-05-04 19:40 | -3.70871 | -61.28968 | 4468 ft | 168 kts | 251° |
| 2026-05-04 19:40 | -3.71310 | -61.30053 | 4467 ft | 168 kts | 250° |
| 2026-05-04 19:40 | -3.71745 | -61.31139 | 4466 ft | 168 kts | 251° |
| 2026-05-04 19:40 | -3.72186 | -61.32227 | 4467 ft | 168 kts | 250° |
| 2026-05-04 19:41 | -3.72622 | -61.33311 | 4466 ft | 168 kts | 251° |
| 2026-05-04 19:41 | -3.73056 | -61.34400 | 4468 ft | 169 kts | 251° |
| 2026-05-04 19:41 | -3.73500 | -61.35488 | 4466 ft | 168 kts | 250° |
| 2026-05-04 19:41 | -3.73938 | -61.36576 | 4467 ft | 168 kts | 251° |
| 2026-05-04 19:42 | -3.74378 | -61.37661 | 4465 ft | 168 kts | 251° |
| 2026-05-04 19:42 | -3.74820 | -61.38748 | 4468 ft | 169 kts | 251° |
| 2026-05-04 19:42 | -3.75255 | -61.39823 | 4465 ft | 168 kts | 251° |
| 2026-05-04 19:42 | -3.75697 | -61.40905 | 4468 ft | 168 kts | 251° |
| 2026-05-04 19:43 | -3.76142 | -61.41987 | 4466 ft | 168 kts | 250° |
| 2026-05-04 19:43 | -3.76584 | -61.43071 | 4469 ft | 168 kts | 250° |
| 2026-05-04 19:43 | -3.77025 | -61.44153 | 4467 ft | 168 kts | 251° |
| 2026-05-04 19:43 | -3.77475 | -61.45238 | 4466 ft | 169 kts | 250° |
| 2026-05-04 19:44 | -3.77920 | -61.46324 | 4464 ft | 169 kts | 251° |
| 2026-05-04 19:44 | -3.78367 | -61.47412 | 4462 ft | 169 kts | 251° |
| 2026-05-04 19:44 | -3.78815 | -61.48499 | 4466 ft | 168 kts | 250° |
| 2026-05-04 19:44 | -3.79258 | -61.49587 | 4462 ft | 169 kts | 250° |
| 2026-05-04 19:45 | -3.79705 | -61.50677 | 4464 ft | 169 kts | 250° |
| 2026-05-04 19:45 | -3.80090 | -61.51783 | 4460 ft | 168 kts | 255° |
| 2026-05-04 19:45 | -3.80438 | -61.52899 | 4464 ft | 169 kts | 255° |
| 2026-05-04 19:45 | -3.80792 | -61.54020 | 4462 ft | 169 kts | 255° |
| 2026-05-04 19:46 | -3.81146 | -61.55143 | 4467 ft | 169 kts | 255° |
| 2026-05-04 19:46 | -3.81497 | -61.56267 | 4467 ft | 169 kts | 255° |
| 2026-05-04 19:46 | -3.81850 | -61.57392 | 4469 ft | 169 kts | 255° |
| 2026-05-04 19:46 | -3.82201 | -61.58502 | 4466 ft | 169 kts | 255° |
| 2026-05-04 19:47 | -3.82554 | -61.59630 | 4466 ft | 170 kts | 255° |
| 2026-05-04 19:47 | -3.82911 | -61.60759 | 4465 ft | 170 kts | 255° |
| 2026-05-04 19:47 | -3.83270 | -61.61887 | 4465 ft | 169 kts | 255° |
| 2026-05-04 19:47 | -3.83624 | -61.63014 | 4471 ft | 170 kts | 255° |
| 2026-05-04 19:48 | -3.83977 | -61.64142 | 4465 ft | 169 kts | 255° |
| 2026-05-04 19:48 | -3.84334 | -61.65265 | 4467 ft | 169 kts | 255° |
| 2026-05-04 19:48 | -3.84688 | -61.66386 | 4468 ft | 169 kts | 255° |
| 2026-05-04 19:48 | -3.85046 | -61.67513 | 4467 ft | 169 kts | 255° |
| 2026-05-04 19:49 | -3.85397 | -61.68620 | 4467 ft | 169 kts | 255° |
| 2026-05-04 19:49 | -3.85747 | -61.69743 | 4468 ft | 169 kts | 255° |
| 2026-05-04 19:49 | -3.86099 | -61.70861 | 4465 ft | 169 kts | 255° |
| 2026-05-04 19:49 | -3.86455 | -61.71981 | 4467 ft | 169 kts | 255° |
| 2026-05-04 19:50 | -3.86813 | -61.73102 | 4467 ft | 169 kts | 255° |
| 2026-05-04 19:50 | -3.87168 | -61.74222 | 4466 ft | 168 kts | 256° |
| 2026-05-04 19:50 | -3.87293 | -61.75374 | 4456 ft | 166 kts | 271° |
| 2026-05-04 19:50 | -3.87342 | -61.76527 | 4454 ft | 165 kts | 270° |
| 2026-05-04 19:51 | -3.87392 | -61.77682 | 4458 ft | 166 kts | 271° |
| 2026-05-04 19:51 | -3.87443 | -61.78840 | 4455 ft | 166 kts | 270° |
| 2026-05-04 19:51 | -3.87498 | -61.79996 | 4456 ft | 166 kts | 270° |
| 2026-05-04 19:51 | -3.87548 | -61.81156 | 4455 ft | 167 kts | 270° |
| 2026-05-04 19:52 | -3.87596 | -61.82305 | 4454 ft | 167 kts | 271° |
| 2026-05-04 19:52 | -3.87648 | -61.83473 | 4456 ft | 168 kts | 270° |
| 2026-05-04 19:52 | -3.87697 | -61.84643 | 4456 ft | 168 kts | 270° |
| 2026-05-04 19:52 | -3.87746 | -61.85811 | 4455 ft | 168 kts | 271° |
| 2026-05-04 19:53 | -3.87798 | -61.86982 | 4457 ft | 169 kts | 270° |
| 2026-05-04 19:53 | -3.87851 | -61.88157 | 4460 ft | 168 kts | 270° |
| 2026-05-04 19:53 | -3.87901 | -61.89329 | 4459 ft | 168 kts | 270° |
| 2026-05-04 19:53 | -3.87950 | -61.90496 | 4458 ft | 167 kts | 270° |
| 2026-05-04 19:54 | -3.87997 | -61.91664 | 4456 ft | 168 kts | 270° |
| 2026-05-04 19:54 | -3.88046 | -61.92835 | 4457 ft | 168 kts | 270° |
| 2026-05-04 19:54 | -3.88098 | -61.94007 | 4460 ft | 168 kts | 270° |
| 2026-05-04 19:54 | -3.88144 | -61.95162 | 4458 ft | 169 kts | 270° |
| 2026-05-04 19:55 | -3.88194 | -61.96336 | 4459 ft | 169 kts | 270° |
| 2026-05-04 19:55 | -3.88244 | -61.97511 | 4457 ft | 168 kts | 270° |
| 2026-05-04 19:55 | -3.88288 | -61.98682 | 4458 ft | 168 kts | 270° |
| 2026-05-04 19:55 | -3.88333 | -61.99850 | 4454 ft | 167 kts | 270° |
| 2026-05-04 19:56 | -3.88380 | -62.01019 | 4461 ft | 168 kts | 270° |
| 2026-05-04 19:56 | -3.88427 | -62.02185 | 4456 ft | 167 kts | 270° |
| 2026-05-04 19:56 | -3.88434 | -62.03347 | 4454 ft | 166 kts | 274° |
| 2026-05-04 19:56 | -3.88310 | -62.04498 | 4454 ft | 166 kts | 282° |
| 2026-05-04 19:57 | -3.88057 | -62.05606 | 4454 ft | 165 kts | 289° |
| 2026-05-04 19:57 | -3.87741 | -62.06704 | 4454 ft | 164 kts | 289° |
| 2026-05-04 19:57 | -3.87424 | -62.07804 | 4451 ft | 164 kts | 289° |
| 2026-05-04 19:57 | -3.87102 | -62.08908 | 4456 ft | 166 kts | 289° |
| 2026-05-04 19:58 | -3.86811 | -62.10022 | 4451 ft | 166 kts | 283° |
| 2026-05-04 19:58 | -3.86709 | -62.11178 | 4451 ft | 167 kts | 276° |
| 2026-05-04 19:58 | -3.86638 | -62.12339 | 4448 ft | 166 kts | 276° |
| 2026-05-04 19:58 | -3.86566 | -62.13492 | 4451 ft | 166 kts | 275° |
| 2026-05-04 19:59 | -3.86585 | -62.14658 | 4444 ft | 168 kts | 268° |
| 2026-05-04 19:59 | -3.86682 | -62.15823 | 4449 ft | 168 kts | 266° |
| 2026-05-04 19:59 | -3.86778 | -62.16991 | 4446 ft | 168 kts | 267° |
| 2026-05-04 19:59 | -3.86877 | -62.18147 | 4447 ft | 169 kts | 266° |
| 2026-05-04 20:00 | -3.86971 | -62.19320 | 4445 ft | 169 kts | 267° |
| 2026-05-04 20:00 | -3.87064 | -62.20493 | 4448 ft | 169 kts | 267° |
| 2026-05-04 20:00 | -3.87155 | -62.21662 | 4449 ft | 169 kts | 267° |
| 2026-05-04 20:00 | -3.87247 | -62.22840 | 4445 ft | 169 kts | 266° |
| 2026-05-04 20:01 | -3.87336 | -62.24015 | 4453 ft | 169 kts | 267° |
| 2026-05-04 20:01 | -3.87432 | -62.25193 | 4449 ft | 169 kts | 266° |
| 2026-05-04 20:01 | -3.87523 | -62.26367 | 4452 ft | 169 kts | 267° |
| 2026-05-04 20:01 | -3.87617 | -62.27545 | 4451 ft | 170 kts | 267° |
| 2026-05-04 20:02 | -3.87711 | -62.28723 | 4450 ft | 169 kts | 266° |
| 2026-05-04 20:02 | -3.87805 | -62.29902 | 4446 ft | 169 kts | 266° |
| 2026-05-04 20:02 | -3.87895 | -62.31057 | 4443 ft | 168 kts | 266° |
| 2026-05-04 20:02 | -3.87983 | -62.32220 | 4442 ft | 168 kts | 266° |
| 2026-05-04 20:03 | -3.88079 | -62.33384 | 4446 ft | 168 kts | 266° |
| 2026-05-04 20:03 | -3.88176 | -62.34551 | 4444 ft | 168 kts | 266° |
| 2026-05-04 20:03 | -3.88276 | -62.35714 | 4446 ft | 167 kts | 266° |
| 2026-05-04 20:03 | -3.88377 | -62.36874 | 4446 ft | 167 kts | 266° |
| 2026-05-04 20:04 | -3.88478 | -62.38038 | 4443 ft | 168 kts | 266° |
| 2026-05-04 20:04 | -3.88576 | -62.39201 | 4443 ft | 167 kts | 266° |
| 2026-05-04 20:04 | -3.88681 | -62.40366 | 4443 ft | 168 kts | 266° |
| 2026-05-04 20:04 | -3.88782 | -62.41535 | 4444 ft | 168 kts | 266° |
| 2026-05-04 20:05 | -3.88882 | -62.42704 | 4445 ft | 168 kts | 266° |
| 2026-05-04 20:05 | -3.88987 | -62.43868 | 4444 ft | 167 kts | 266° |
| 2026-05-04 20:05 | -3.89091 | -62.45031 | 4444 ft | 168 kts | 266° |
| 2026-05-04 20:05 | -3.89193 | -62.46183 | 4445 ft | 169 kts | 266° |
| 2026-05-04 20:06 | -3.89292 | -62.47362 | 4442 ft | 170 kts | 266° |
| 2026-05-04 20:06 | -3.89398 | -62.48535 | 4446 ft | 169 kts | 266° |
| 2026-05-04 20:06 | -3.89498 | -62.49711 | 4449 ft | 170 kts | 266° |
| 2026-05-04 20:06 | -3.89596 | -62.50888 | 4448 ft | 169 kts | 266° |
| 2026-05-04 20:07 | -3.89692 | -62.52064 | 4447 ft | 169 kts | 266° |
| 2026-05-04 20:07 | -3.89789 | -62.53238 | 4446 ft | 168 kts | 266° |
| 2026-05-04 20:07 | -3.89878 | -62.54406 | 4448 ft | 168 kts | 267° |
| 2026-05-04 20:07 | -3.89979 | -62.55579 | 4444 ft | 169 kts | 266° |
| 2026-05-04 20:08 | -3.90076 | -62.56751 | 4447 ft | 169 kts | 266° |
| 2026-05-04 20:08 | -3.90174 | -62.57909 | 4447 ft | 169 kts | 266° |
| 2026-05-04 20:08 | -3.90274 | -62.59084 | 4443 ft | 169 kts | 266° |
| 2026-05-04 20:08 | -3.90372 | -62.60255 | 4449 ft | 169 kts | 266° |
| 2026-05-04 20:09 | -3.90471 | -62.61431 | 4445 ft | 169 kts | 266° |
| 2026-05-04 20:09 | -3.90567 | -62.62608 | 4450 ft | 170 kts | 266° |
| 2026-05-04 20:09 | -3.90668 | -62.63787 | 4448 ft | 169 kts | 265° |
| 2026-05-04 20:09 | -3.90769 | -62.64958 | 4447 ft | 169 kts | 266° |
| 2026-05-04 20:10 | -3.90872 | -62.66126 | 4447 ft | 168 kts | 265° |
| 2026-05-04 20:10 | -3.90974 | -62.67300 | 4444 ft | 169 kts | 266° |
| 2026-05-04 20:10 | -3.91076 | -62.68458 | 4447 ft | 170 kts | 266° |
| 2026-05-04 20:10 | -3.91177 | -62.69635 | 4447 ft | 169 kts | 266° |
| 2026-05-04 20:11 | -3.91284 | -62.70808 | 4444 ft | 169 kts | 266° |
| 2026-05-04 20:11 | -3.91384 | -62.71983 | 4447 ft | 169 kts | 265° |
| 2026-05-04 20:11 | -3.91486 | -62.73157 | 4445 ft | 169 kts | 265° |
| 2026-05-04 20:11 | -3.91585 | -62.74326 | 4443 ft | 169 kts | 266° |
| 2026-05-04 20:12 | -3.91687 | -62.75499 | 4445 ft | 169 kts | 265° |
| 2026-05-04 20:12 | -3.91792 | -62.76676 | 4445 ft | 170 kts | 265° |
| 2026-05-04 20:12 | -3.91897 | -62.77855 | 4444 ft | 171 kts | 266° |
| 2026-05-04 20:12 | -3.92008 | -62.79039 | 4447 ft | 171 kts | 265° |
| 2026-05-04 20:13 | -3.92113 | -62.80209 | 4429 ft | 171 kts | 265° |
| 2026-05-04 20:13 | -3.92222 | -62.81400 | 4406 ft | 173 kts | 265° |
| 2026-05-04 20:13 | -3.92375 | -62.82597 | 4385 ft | 173 kts | 261° |
| 2026-05-04 20:13 | -3.92564 | -62.83787 | 4361 ft | 173 kts | 261° |
| 2026-05-04 20:14 | -3.92754 | -62.84983 | 4340 ft | 174 kts | 261° |
| 2026-05-04 20:14 | -3.92944 | -62.86186 | 4315 ft | 175 kts | 261° |
| 2026-05-04 20:14 | -3.93144 | -62.87387 | 4287 ft | 175 kts | 259° |
| 2026-05-04 20:14 | -3.93485 | -62.88556 | 4260 ft | 175 kts | 250° |
| 2026-05-04 20:15 | -3.93899 | -62.89704 | 4227 ft | 175 kts | 248° |
| 2026-05-04 20:15 | -3.94401 | -62.90810 | 4204 ft | 174 kts | 243° |
| 2026-05-04 20:15 | -3.94782 | -62.91514 | 4184 ft | 173 kts | 240° |
| 2026-05-04 20:15 | -3.95661 | -62.92849 | 4149 ft | 171 kts | 234° |
| 2026-05-04 20:16 | -3.96339 | -62.93824 | 4123 ft | 170 kts | 233° |
| 2026-05-04 20:16 | -3.96824 | -62.94441 | 4108 ft | 170 kts | 229° |
| 2026-05-04 20:16 | -3.97619 | -62.95327 | 4037 ft | 173 kts | 226° |
| 2026-05-04 20:16 | -3.98431 | -62.96223 | 3961 ft | 174 kts | 226° |
| 2026-05-04 20:17 | -3.99249 | -62.97124 | 3890 ft | 175 kts | 226° |
| 2026-05-04 20:17 | -4.00073 | -62.98025 | 3819 ft | 176 kts | 226° |
| 2026-05-04 20:17 | -4.00906 | -62.98922 | 3746 ft | 175 kts | 226° |
| 2026-05-04 20:17 | -4.01737 | -62.99822 | 3656 ft | 177 kts | 226° |
| 2026-05-04 20:18 | -4.02577 | -63.00723 | 3487 ft | 180 kts | 226° |
| 2026-05-04 20:18 | -4.03435 | -63.01643 | 3322 ft | 181 kts | 226° |
| 2026-05-04 20:18 | -4.04298 | -63.02564 | 3158 ft | 182 kts | 225° |
| 2026-05-04 20:18 | -4.05161 | -63.03487 | 2988 ft | 181 kts | 226° |
| 2026-05-04 20:19 | -4.06015 | -63.04410 | 2816 ft | 181 kts | 227° |
| 2026-05-04 20:19 | -4.06858 | -63.05349 | 2643 ft | 181 kts | 227° |
| 2026-05-04 20:19 | -4.07659 | -63.06331 | 2477 ft | 183 kts | 231° |
| 2026-05-04 20:19 | -4.08445 | -63.07342 | 2305 ft | 185 kts | 231° |
| 2026-05-04 20:20 | -4.09258 | -63.08339 | 2135 ft | 184 kts | 227° |
| 2026-05-04 20:20 | -4.10133 | -63.09284 | 1963 ft | 185 kts | 225° |
| 2026-05-04 20:20 | -4.11143 | -63.10081 | 1784 ft | 186 kts | 213° |
| 2026-05-04 20:20 | -4.12188 | -63.10832 | 1560 ft | 178 kts | 217° |
| 2026-05-04 20:21 | -4.12730 | -63.11866 | 1240 ft | 165 kts | 265° |
| 2026-05-04 20:21 | -4.12760 | -63.12953 | 1179 ft | 149 kts | 266° |
| 2026-05-04 20:21 | -4.12948 | -63.14867 | 1147 ft | 132 kts | 266° |
| 2026-05-04 20:22 | -4.13003 | -63.15756 | 1120 ft | 122 kts | 275° |
| 2026-05-04 20:22 | -4.12890 | -63.16563 | 1102 ft | 112 kts | 278° |
| 2026-05-04 20:22 | -4.12925 | -63.17263 | 1015 ft | 97 kts | 239° |
| 2026-05-04 20:22 | -4.13504 | -63.17392 | 916 ft | 93 kts | 146° |
| 2026-05-04 20:23 | -4.13652 | -63.16840 | 816 ft | 91 kts | 75° |
| 2026-05-04 20:23 | -4.13547 | -63.16235 | 615 ft | 88 kts | 80° |
| 2026-05-04 20:23 | -4.13472 | -63.15671 | 423 ft | 76 kts | 82° |
| 2026-05-04 20:23 | -4.13425 | -63.15161 | 343 ft | 71 kts | 83° |
| 2026-05-04 20:24 | -4.13402 | -63.14669 | 295 ft | 77 kts | 84° |
| 2026-05-04 20:24 | -4.13404 | -63.14121 | 169 ft | 74 kts | 88° |
| 2026-05-04 20:24 | -4.13402 | -63.13638 | 146 ft | 65 kts | 87° |
| 2026-05-04 20:24 | -4.13391 | -63.13233 | 144 ft | 43 kts | 89° |
| 2026-05-04 20:25 | -4.13387 | -63.13023 | 146 ft | 26 kts | 89° |
| 2026-05-04 20:25 | -4.13406 | -63.13058 | 146 ft | 15 kts | 294° |
| 2026-05-04 20:25 | -4.13402 | -63.13179 | 144 ft | 21 kts | 268° |
| 2026-05-04 20:25 | -4.13402 | -63.13349 | 142 ft | 27 kts | 274° |
| 2026-05-04 20:26 | -4.13381 | -63.13484 | 142 ft | 13 kts | 332° |
| 2026-05-04 20:26 | -4.13347 | -63.13487 | 143 ft | 0 kts | 4° |
| 2026-05-04 20:26 | -4.13346 | -63.13487 | 143 ft | 0 kts | 4° |
| 2026-05-04 20:26 | -4.13294 | -63.13486 | 143 ft | 11 kts | 4° |
| 2026-05-04 20:27 | -4.13220 | -63.13480 | 144 ft | 9 kts | 353° |
| 2026-05-04 20:27 | -4.13213 | -63.13488 | 143 ft | 0 kts | 218° |